sensor_id;sensor_type;location;lat;lon;timestamp;P1;durP1;ratioP1;P2;durP2;ratioP2
12896;SDS011;6516;35.028;32.372;2023-07-28T00:00:52;14.05;;;4.95;;
12896;SDS011;6516;35.028;32.372;2023-07-28T00:03:22;14.40;;;5.05;;
12896;SDS011;6516;35.028;32.372;2023-07-28T00:05:50;15.25;;;4.70;;
12896;SDS011;6516;35.028;32.372;2023-07-28T00:08:17;13.15;;;4.80;;
12896;SDS011;6516;35.028;32.372;2023-07-28T00:10:45;17.50;;;5.03;;
12896;SDS011;6516;35.028;32.372;2023-07-28T00:13:13;15.00;;;4.80;;
12896;SDS011;6516;35.028;32.372;2023-07-28T00:15:41;12.18;;;5.10;;
12896;SDS011;6516;35.028;32.372;2023-07-28T00:18:09;15.57;;;4.82;;
12896;SDS011;6516;35.028;32.372;2023-07-28T00:20:38;14.82;;;4.93;;
12896;SDS011;6516;35.028;32.372;2023-07-28T00:23:06;14.37;;;5.00;;
12896;SDS011;6516;35.028;32.372;2023-07-28T00:25:34;16.80;;;5.40;;
12896;SDS011;6516;35.028;32.372;2023-07-28T00:28:02;16.90;;;4.88;;
12896;SDS011;6516;35.028;32.372;2023-07-28T00:30:30;15.20;;;4.53;;
12896;SDS011;6516;35.028;32.372;2023-07-28T00:32:58;17.67;;;5.05;;
12896;SDS011;6516;35.028;32.372;2023-07-28T00:35:26;14.47;;;4.67;;
12896;SDS011;6516;35.028;32.372;2023-07-28T00:37:55;13.95;;;4.75;;
12896;SDS011;6516;35.028;32.372;2023-07-28T00:40:23;12.55;;;4.82;;
12896;SDS011;6516;35.028;32.372;2023-07-28T00:42:51;16.88;;;5.32;;
12896;SDS011;6516;35.028;32.372;2023-07-28T00:45:19;14.35;;;5.03;;
12896;SDS011;6516;35.028;32.372;2023-07-28T00:47:47;15.63;;;5.70;;
12896;SDS011;6516;35.028;32.372;2023-07-28T00:50:16;17.45;;;6.03;;
12896;SDS011;6516;35.028;32.372;2023-07-28T00:52:44;17.00;;;6.18;;
12896;SDS011;6516;35.028;32.372;2023-07-28T00:55:13;17.80;;;6.43;;
12896;SDS011;6516;35.028;32.372;2023-07-28T00:57:41;16.23;;;6.70;;
12896;SDS011;6516;35.028;32.372;2023-07-28T01:00:09;15.17;;;6.27;;
12896;SDS011;6516;35.028;32.372;2023-07-28T01:02:38;18.63;;;6.32;;
12896;SDS011;6516;35.028;32.372;2023-07-28T01:05:06;18.77;;;6.90;;
12896;SDS011;6516;35.028;32.372;2023-07-28T01:07:36;20.05;;;6.68;;
12896;SDS011;6516;35.028;32.372;2023-07-28T01:10:11;15.25;;;6.72;;
12896;SDS011;6516;35.028;32.372;2023-07-28T01:12:45;14.90;;;6.37;;
12896;SDS011;6516;35.028;32.372;2023-07-28T01:15:13;18.73;;;7.30;;
12896;SDS011;6516;35.028;32.372;2023-07-28T01:17:41;17.20;;;6.45;;
12896;SDS011;6516;35.028;32.372;2023-07-28T01:20:09;14.20;;;6.20;;
12896;SDS011;6516;35.028;32.372;2023-07-28T01:22:46;13.27;;;6.32;;
12896;SDS011;6516;35.028;32.372;2023-07-28T01:25:28;16.40;;;5.83;;
12896;SDS011;6516;35.028;32.372;2023-07-28T01:28:09;15.00;;;5.15;;
12896;SDS011;6516;35.028;32.372;2023-07-28T01:30:38;15.88;;;5.45;;
12896;SDS011;6516;35.028;32.372;2023-07-28T01:33:07;19.45;;;5.97;;
12896;SDS011;6516;35.028;32.372;2023-07-28T01:35:35;18.42;;;5.60;;
12896;SDS011;6516;35.028;32.372;2023-07-28T01:38:04;18.43;;;6.20;;
12896;SDS011;6516;35.028;32.372;2023-07-28T01:40:32;16.95;;;5.95;;
12896;SDS011;6516;35.028;32.372;2023-07-28T01:43:00;18.83;;;6.22;;
12896;SDS011;6516;35.028;32.372;2023-07-28T01:45:29;15.45;;;6.30;;
12896;SDS011;6516;35.028;32.372;2023-07-28T01:47:57;17.25;;;6.40;;
12896;SDS011;6516;35.028;32.372;2023-07-28T01:50:25;14.07;;;6.10;;
12896;SDS011;6516;35.028;32.372;2023-07-28T01:52:53;17.23;;;6.68;;
12896;SDS011;6516;35.028;32.372;2023-07-28T01:55:21;14.50;;;6.15;;
12896;SDS011;6516;35.028;32.372;2023-07-28T01:57:50;13.73;;;6.35;;
12896;SDS011;6516;35.028;32.372;2023-07-28T02:00:22;16.50;;;6.60;;
12896;SDS011;6516;35.028;32.372;2023-07-28T02:02:52;16.10;;;7.30;;
12896;SDS011;6516;35.028;32.372;2023-07-28T02:05:20;17.38;;;7.43;;
12896;SDS011;6516;35.028;32.372;2023-07-28T02:07:48;16.67;;;8.00;;
12896;SDS011;6516;35.028;32.372;2023-07-28T02:10:16;18.60;;;7.70;;
12896;SDS011;6516;35.028;32.372;2023-07-28T02:12:44;18.83;;;8.48;;
12896;SDS011;6516;35.028;32.372;2023-07-28T02:15:12;22.43;;;7.90;;
12896;SDS011;6516;35.028;32.372;2023-07-28T02:17:40;17.10;;;8.13;;
12896;SDS011;6516;35.028;32.372;2023-07-28T02:20:10;19.67;;;8.75;;
12896;SDS011;6516;35.028;32.372;2023-07-28T02:22:38;17.45;;;7.80;;
12896;SDS011;6516;35.028;32.372;2023-07-28T02:25:07;19.67;;;8.23;;
12896;SDS011;6516;35.028;32.372;2023-07-28T02:27:36;19.27;;;7.87;;
12896;SDS011;6516;35.028;32.372;2023-07-28T02:30:04;21.27;;;7.43;;
12896;SDS011;6516;35.028;32.372;2023-07-28T02:32:34;16.70;;;7.43;;
12896;SDS011;6516;35.028;32.372;2023-07-28T02:35:02;18.38;;;6.72;;
12896;SDS011;6516;35.028;32.372;2023-07-28T02:37:32;16.27;;;6.90;;
12896;SDS011;6516;35.028;32.372;2023-07-28T02:40:00;16.53;;;6.20;;
12896;SDS011;6516;35.028;32.372;2023-07-28T02:42:28;16.38;;;6.30;;
12896;SDS011;6516;35.028;32.372;2023-07-28T02:44:56;16.30;;;5.70;;
12896;SDS011;6516;35.028;32.372;2023-07-28T02:47:24;13.40;;;5.75;;
12896;SDS011;6516;35.028;32.372;2023-07-28T02:49:51;15.40;;;5.65;;
12896;SDS011;6516;35.028;32.372;2023-07-28T02:52:19;14.87;;;5.90;;
12896;SDS011;6516;35.028;32.372;2023-07-28T02:54:49;13.68;;;5.05;;
12896;SDS011;6516;35.028;32.372;2023-07-28T02:57:17;12.32;;;5.70;;
12896;SDS011;6516;35.028;32.372;2023-07-28T02:59:44;19.15;;;5.97;;
12896;SDS011;6516;35.028;32.372;2023-07-28T03:02:12;14.30;;;6.35;;
12896;SDS011;6516;35.028;32.372;2023-07-28T03:04:40;15.03;;;5.47;;
12896;SDS011;6516;35.028;32.372;2023-07-28T03:07:08;13.38;;;5.65;;
12896;SDS011;6516;35.028;32.372;2023-07-28T03:09:36;16.65;;;5.90;;
12896;SDS011;6516;35.028;32.372;2023-07-28T03:12:06;16.33;;;5.63;;
12896;SDS011;6516;35.028;32.372;2023-07-28T03:14:34;17.05;;;6.35;;
12896;SDS011;6516;35.028;32.372;2023-07-28T03:17:02;19.63;;;5.83;;
12896;SDS011;6516;35.028;32.372;2023-07-28T03:19:31;10.82;;;5.40;;
12896;SDS011;6516;35.028;32.372;2023-07-28T03:21:59;13.02;;;6.10;;
12896;SDS011;6516;35.028;32.372;2023-07-28T03:24:26;14.25;;;5.90;;
12896;SDS011;6516;35.028;32.372;2023-07-28T03:26:54;15.60;;;5.97;;
12896;SDS011;6516;35.028;32.372;2023-07-28T03:29:23;16.63;;;6.20;;
12896;SDS011;6516;35.028;32.372;2023-07-28T03:31:51;12.15;;;5.72;;
12896;SDS011;6516;35.028;32.372;2023-07-28T03:34:19;17.08;;;5.88;;
12896;SDS011;6516;35.028;32.372;2023-07-28T03:36:47;16.25;;;6.45;;
12896;SDS011;6516;35.028;32.372;2023-07-28T03:39:15;14.63;;;6.57;;
12896;SDS011;6516;35.028;32.372;2023-07-28T03:41:43;17.10;;;6.80;;
12896;SDS011;6516;35.028;32.372;2023-07-28T03:44:11;14.00;;;6.60;;
12896;SDS011;6516;35.028;32.372;2023-07-28T03:46:40;14.32;;;6.22;;
12896;SDS011;6516;35.028;32.372;2023-07-28T03:49:08;11.68;;;6.13;;
12896;SDS011;6516;35.028;32.372;2023-07-28T03:51:35;15.25;;;6.43;;
12896;SDS011;6516;35.028;32.372;2023-07-28T03:54:03;15.63;;;6.90;;
12896;SDS011;6516;35.028;32.372;2023-07-28T03:56:31;12.32;;;6.40;;
12896;SDS011;6516;35.028;32.372;2023-07-28T03:58:59;17.05;;;6.40;;
12896;SDS011;6516;35.028;32.372;2023-07-28T04:01:26;15.00;;;6.47;;
12896;SDS011;6516;35.028;32.372;2023-07-28T04:03:56;15.35;;;6.70;;
12896;SDS011;6516;35.028;32.372;2023-07-28T04:06:39;15.93;;;6.20;;
12896;SDS011;6516;35.028;32.372;2023-07-28T04:09:08;16.42;;;6.22;;
12896;SDS011;6516;35.028;32.372;2023-07-28T04:11:36;14.88;;;6.18;;
12896;SDS011;6516;35.028;32.372;2023-07-28T04:14:04;14.10;;;6.28;;
12896;SDS011;6516;35.028;32.372;2023-07-28T04:16:32;14.15;;;6.25;;
12896;SDS011;6516;35.028;32.372;2023-07-28T04:19:02;18.83;;;6.50;;
12896;SDS011;6516;35.028;32.372;2023-07-28T04:21:30;15.50;;;5.95;;
12896;SDS011;6516;35.028;32.372;2023-07-28T04:23:57;19.38;;;6.40;;
12896;SDS011;6516;35.028;32.372;2023-07-28T04:26:25;12.93;;;6.40;;
12896;SDS011;6516;35.028;32.372;2023-07-28T04:28:53;18.75;;;6.82;;
12896;SDS011;6516;35.028;32.372;2023-07-28T04:31:21;17.17;;;6.07;;
12896;SDS011;6516;35.028;32.372;2023-07-28T04:33:49;19.08;;;6.45;;
12896;SDS011;6516;35.028;32.372;2023-07-28T04:36:18;19.30;;;6.18;;
12896;SDS011;6516;35.028;32.372;2023-07-28T04:38:46;17.50;;;5.47;;
12896;SDS011;6516;35.028;32.372;2023-07-28T04:41:14;17.20;;;5.65;;
12896;SDS011;6516;35.028;32.372;2023-07-28T04:43:42;18.63;;;5.63;;
12896;SDS011;6516;35.028;32.372;2023-07-28T04:46:10;19.88;;;5.32;;
12896;SDS011;6516;35.028;32.372;2023-07-28T04:48:38;21.27;;;5.93;;
12896;SDS011;6516;35.028;32.372;2023-07-28T04:51:06;16.33;;;5.97;;
12896;SDS011;6516;35.028;32.372;2023-07-28T04:53:35;20.30;;;5.82;;
12896;SDS011;6516;35.028;32.372;2023-07-28T04:56:03;17.47;;;6.13;;
12896;SDS011;6516;35.028;32.372;2023-07-28T04:58:31;20.95;;;5.68;;
12896;SDS011;6516;35.028;32.372;2023-07-28T05:00:59;25.20;;;6.47;;
12896;SDS011;6516;35.028;32.372;2023-07-28T05:03:27;43.53;;;8.00;;
12896;SDS011;6516;35.028;32.372;2023-07-28T05:05:55;34.38;;;8.65;;
12896;SDS011;6516;35.028;32.372;2023-07-28T05:08:23;34.97;;;6.87;;
12896;SDS011;6516;35.028;32.372;2023-07-28T05:10:55;37.58;;;8.00;;
12896;SDS011;6516;35.028;32.372;2023-07-28T05:13:23;38.92;;;8.32;;
12896;SDS011;6516;35.028;32.372;2023-07-28T05:15:51;24.45;;;5.90;;
12896;SDS011;6516;35.028;32.372;2023-07-28T05:18:19;24.67;;;5.80;;
12896;SDS011;6516;35.028;32.372;2023-07-28T05:20:47;26.50;;;5.47;;
12896;SDS011;6516;35.028;32.372;2023-07-28T05:23:15;16.83;;;5.18;;
12896;SDS011;6516;35.028;32.372;2023-07-28T05:25:43;15.75;;;4.90;;
12896;SDS011;6516;35.028;32.372;2023-07-28T05:28:12;19.60;;;5.20;;
12896;SDS011;6516;35.028;32.372;2023-07-28T05:30:43;20.15;;;5.60;;
12896;SDS011;6516;35.028;32.372;2023-07-28T05:33:11;15.30;;;6.07;;
12896;SDS011;6516;35.028;32.372;2023-07-28T05:35:38;18.40;;;5.22;;
12896;SDS011;6516;35.028;32.372;2023-07-28T05:38:06;16.15;;;5.57;;
12896;SDS011;6516;35.028;32.372;2023-07-28T05:40:34;14.48;;;5.75;;
12896;SDS011;6516;35.028;32.372;2023-07-28T05:43:02;21.08;;;5.63;;
12896;SDS011;6516;35.028;32.372;2023-07-28T05:45:31;16.67;;;5.10;;
12896;SDS011;6516;35.028;32.372;2023-07-28T05:47:59;20.30;;;5.60;;
12896;SDS011;6516;35.028;32.372;2023-07-28T05:50:27;17.20;;;4.85;;
12896;SDS011;6516;35.028;32.372;2023-07-28T05:52:55;17.27;;;5.30;;
12896;SDS011;6516;35.028;32.372;2023-07-28T05:55:23;16.67;;;5.68;;
12896;SDS011;6516;35.028;32.372;2023-07-28T05:57:51;20.07;;;5.07;;
12896;SDS011;6516;35.028;32.372;2023-07-28T06:00:18;14.75;;;5.07;;
12896;SDS011;6516;35.028;32.372;2023-07-28T06:02:48;15.82;;;5.30;;
12896;SDS011;6516;35.028;32.372;2023-07-28T06:05:17;16.88;;;5.97;;
12896;SDS011;6516;35.028;32.372;2023-07-28T06:07:44;16.08;;;5.85;;
12896;SDS011;6516;35.028;32.372;2023-07-28T06:10:12;18.33;;;5.30;;
12896;SDS011;6516;35.028;32.372;2023-07-28T06:12:40;13.93;;;5.18;;
12896;SDS011;6516;35.028;32.372;2023-07-28T06:15:08;17.48;;;5.53;;
12896;SDS011;6516;35.028;32.372;2023-07-28T06:17:37;18.38;;;5.43;;
12896;SDS011;6516;35.028;32.372;2023-07-28T06:20:07;18.13;;;5.13;;
12896;SDS011;6516;35.028;32.372;2023-07-28T06:22:36;13.03;;;5.30;;
12896;SDS011;6516;35.028;32.372;2023-07-28T06:25:06;15.85;;;5.70;;
12896;SDS011;6516;35.028;32.372;2023-07-28T06:27:35;17.08;;;5.60;;
12896;SDS011;6516;35.028;32.372;2023-07-28T06:30:04;21.08;;;5.57;;
12896;SDS011;6516;35.028;32.372;2023-07-28T06:32:33;20.08;;;5.30;;
12896;SDS011;6516;35.028;32.372;2023-07-28T06:35:01;16.07;;;5.47;;
12896;SDS011;6516;35.028;32.372;2023-07-28T06:37:30;16.95;;;5.68;;
12896;SDS011;6516;35.028;32.372;2023-07-28T06:39:58;16.77;;;5.65;;
12896;SDS011;6516;35.028;32.372;2023-07-28T06:42:26;16.40;;;5.00;;
12896;SDS011;6516;35.028;32.372;2023-07-28T06:44:54;17.48;;;5.57;;
12896;SDS011;6516;35.028;32.372;2023-07-28T06:47:22;17.03;;;5.20;;
12896;SDS011;6516;35.028;32.372;2023-07-28T06:49:50;14.52;;;5.30;;
12896;SDS011;6516;35.028;32.372;2023-07-28T06:52:18;14.05;;;5.78;;
12896;SDS011;6516;35.028;32.372;2023-07-28T06:54:47;15.20;;;5.55;;
12896;SDS011;6516;35.028;32.372;2023-07-28T06:57:15;17.58;;;5.80;;
12896;SDS011;6516;35.028;32.372;2023-07-28T06:59:43;16.20;;;4.93;;
12896;SDS011;6516;35.028;32.372;2023-07-28T07:02:11;18.13;;;5.35;;
12896;SDS011;6516;35.028;32.372;2023-07-28T07:04:39;17.52;;;5.40;;
12896;SDS011;6516;35.028;32.372;2023-07-28T07:07:07;14.00;;;5.07;;
12896;SDS011;6516;35.028;32.372;2023-07-28T07:09:36;19.63;;;5.00;;
12896;SDS011;6516;35.028;32.372;2023-07-28T07:12:06;17.43;;;5.00;;
12896;SDS011;6516;35.028;32.372;2023-07-28T07:14:35;19.58;;;5.57;;
12896;SDS011;6516;35.028;32.372;2023-07-28T07:17:03;17.50;;;5.30;;
12896;SDS011;6516;35.028;32.372;2023-07-28T07:19:31;19.40;;;5.60;;
12896;SDS011;6516;35.028;32.372;2023-07-28T07:21:59;14.30;;;5.50;;
12896;SDS011;6516;35.028;32.372;2023-07-28T07:24:28;13.87;;;5.43;;
12896;SDS011;6516;35.028;32.372;2023-07-28T07:26:56;18.80;;;6.10;;
12896;SDS011;6516;35.028;32.372;2023-07-28T07:29:26;15.88;;;5.35;;
12896;SDS011;6516;35.028;32.372;2023-07-28T07:31:53;20.15;;;6.20;;
12896;SDS011;6516;35.028;32.372;2023-07-28T07:34:22;13.95;;;5.32;;
12896;SDS011;6516;35.028;32.372;2023-07-28T07:36:50;17.73;;;5.57;;
12896;SDS011;6516;35.028;32.372;2023-07-28T07:39:18;17.13;;;5.38;;
12896;SDS011;6516;35.028;32.372;2023-07-28T07:41:46;17.63;;;5.30;;
12896;SDS011;6516;35.028;32.372;2023-07-28T07:44:14;17.98;;;5.45;;
12896;SDS011;6516;35.028;32.372;2023-07-28T07:46:44;16.23;;;5.60;;
12896;SDS011;6516;35.028;32.372;2023-07-28T07:49:13;17.07;;;4.90;;
12896;SDS011;6516;35.028;32.372;2023-07-28T07:51:41;19.60;;;5.20;;
12896;SDS011;6516;35.028;32.372;2023-07-28T07:54:10;19.95;;;6.00;;
12896;SDS011;6516;35.028;32.372;2023-07-28T07:56:41;18.30;;;5.70;;
12896;SDS011;6516;35.028;32.372;2023-07-28T07:59:08;16.42;;;5.72;;
12896;SDS011;6516;35.028;32.372;2023-07-28T08:01:36;14.33;;;5.50;;
12896;SDS011;6516;35.028;32.372;2023-07-28T08:04:06;18.73;;;5.18;;
12896;SDS011;6516;35.028;32.372;2023-07-28T08:06:34;15.38;;;5.30;;
12896;SDS011;6516;35.028;32.372;2023-07-28T08:09:06;16.48;;;5.00;;
12896;SDS011;6516;35.028;32.372;2023-07-28T08:11:35;14.18;;;4.75;;
12896;SDS011;6516;35.028;32.372;2023-07-28T08:14:02;18.10;;;5.20;;
12896;SDS011;6516;35.028;32.372;2023-07-28T08:16:30;14.60;;;4.95;;
12896;SDS011;6516;35.028;32.372;2023-07-28T08:18:58;17.67;;;5.13;;
12896;SDS011;6516;35.028;32.372;2023-07-28T08:21:28;15.65;;;5.38;;
12896;SDS011;6516;35.028;32.372;2023-07-28T08:24:01;16.88;;;5.43;;
12896;SDS011;6516;35.028;32.372;2023-07-28T08:26:29;17.00;;;5.70;;
12896;SDS011;6516;35.028;32.372;2023-07-28T08:28:57;18.42;;;5.47;;
12896;SDS011;6516;35.028;32.372;2023-07-28T08:31:25;20.23;;;5.85;;
12896;SDS011;6516;35.028;32.372;2023-07-28T08:33:53;22.77;;;5.40;;
12896;SDS011;6516;35.028;32.372;2023-07-28T08:36:21;13.32;;;5.60;;
12896;SDS011;6516;35.028;32.372;2023-07-28T08:38:50;15.57;;;5.20;;
12896;SDS011;6516;35.028;32.372;2023-07-28T08:41:19;15.88;;;5.40;;
12896;SDS011;6516;35.028;32.372;2023-07-28T08:43:47;15.48;;;5.05;;
12896;SDS011;6516;35.028;32.372;2023-07-28T08:46:16;16.40;;;5.22;;
12896;SDS011;6516;35.028;32.372;2023-07-28T08:48:44;13.75;;;5.07;;
12896;SDS011;6516;35.028;32.372;2023-07-28T08:51:12;17.53;;;5.30;;
12896;SDS011;6516;35.028;32.372;2023-07-28T08:53:40;16.42;;;5.20;;
12896;SDS011;6516;35.028;32.372;2023-07-28T08:56:10;22.55;;;5.20;;
12896;SDS011;6516;35.028;32.372;2023-07-28T08:58:38;17.40;;;5.35;;
12896;SDS011;6516;35.028;32.372;2023-07-28T09:01:06;13.25;;;4.85;;
12896;SDS011;6516;35.028;32.372;2023-07-28T09:03:34;14.70;;;5.30;;
12896;SDS011;6516;35.028;32.372;2023-07-28T09:06:06;16.17;;;5.25;;
12896;SDS011;6516;35.028;32.372;2023-07-28T09:08:35;15.20;;;5.30;;
12896;SDS011;6516;35.028;32.372;2023-07-28T09:11:05;18.35;;;5.53;;
12896;SDS011;6516;35.028;32.372;2023-07-28T09:13:38;15.43;;;5.80;;
12896;SDS011;6516;35.028;32.372;2023-07-28T09:16:16;13.47;;;4.63;;
12896;SDS011;6516;35.028;32.372;2023-07-28T09:18:44;15.15;;;5.03;;
12896;SDS011;6516;35.028;32.372;2023-07-28T09:21:16;17.58;;;5.20;;
12896;SDS011;6516;35.028;32.372;2023-07-28T09:23:46;16.25;;;5.00;;
12896;SDS011;6516;35.028;32.372;2023-07-28T09:26:14;19.25;;;5.40;;
12896;SDS011;6516;35.028;32.372;2023-07-28T09:28:45;16.73;;;5.27;;
12896;SDS011;6516;35.028;32.372;2023-07-28T09:31:13;16.50;;;5.35;;
12896;SDS011;6516;35.028;32.372;2023-07-28T09:33:42;18.50;;;6.07;;
12896;SDS011;6516;35.028;32.372;2023-07-28T09:36:12;15.32;;;4.90;;
12896;SDS011;6516;35.028;32.372;2023-07-28T09:38:42;18.73;;;5.55;;
12896;SDS011;6516;35.028;32.372;2023-07-28T09:41:10;17.63;;;5.50;;
12896;SDS011;6516;35.028;32.372;2023-07-28T09:43:38;17.65;;;5.30;;
12896;SDS011;6516;35.028;32.372;2023-07-28T09:46:09;15.38;;;5.30;;
12896;SDS011;6516;35.028;32.372;2023-07-28T09:48:38;19.27;;;5.00;;
12896;SDS011;6516;35.028;32.372;2023-07-28T09:51:12;16.75;;;5.40;;
12896;SDS011;6516;35.028;32.372;2023-07-28T09:53:46;15.70;;;5.20;;
12896;SDS011;6516;35.028;32.372;2023-07-28T09:56:22;19.25;;;5.28;;
12896;SDS011;6516;35.028;32.372;2023-07-28T09:58:54;15.07;;;5.45;;
12896;SDS011;6516;35.028;32.372;2023-07-28T10:01:26;14.75;;;5.47;;
12896;SDS011;6516;35.028;32.372;2023-07-28T10:03:55;15.80;;;4.60;;
12896;SDS011;6516;35.028;32.372;2023-07-28T10:06:23;15.33;;;5.43;;
12896;SDS011;6516;35.028;32.372;2023-07-28T10:08:51;17.20;;;5.70;;
12896;SDS011;6516;35.028;32.372;2023-07-28T10:11:19;20.73;;;5.72;;
12896;SDS011;6516;35.028;32.372;2023-07-28T10:13:50;16.17;;;5.40;;
12896;SDS011;6516;35.028;32.372;2023-07-28T10:16:19;17.15;;;5.20;;
12896;SDS011;6516;35.028;32.372;2023-07-28T10:19:04;19.97;;;5.17;;
12896;SDS011;6516;35.028;32.372;2023-07-28T10:21:32;19.48;;;5.68;;
12896;SDS011;6516;35.028;32.372;2023-07-28T10:24:08;16.88;;;5.47;;
12896;SDS011;6516;35.028;32.372;2023-07-28T10:26:37;17.92;;;6.10;;
12896;SDS011;6516;35.028;32.372;2023-07-28T10:29:10;33.42;;;6.32;;
12896;SDS011;6516;35.028;32.372;2023-07-28T10:31:51;17.07;;;5.53;;
12896;SDS011;6516;35.028;32.372;2023-07-28T10:34:21;20.42;;;6.05;;
12896;SDS011;6516;35.028;32.372;2023-07-28T10:36:56;24.25;;;6.78;;
12896;SDS011;6516;35.028;32.372;2023-07-28T10:39:25;17.30;;;5.70;;
12896;SDS011;6516;35.028;32.372;2023-07-28T10:42:01;28.08;;;6.78;;
12896;SDS011;6516;35.028;32.372;2023-07-28T10:44:31;19.20;;;6.80;;
12896;SDS011;6516;35.028;32.372;2023-07-28T10:47:01;24.00;;;6.00;;
12896;SDS011;6516;35.028;32.372;2023-07-28T10:49:34;22.45;;;6.25;;
12896;SDS011;6516;35.028;32.372;2023-07-28T10:52:02;21.75;;;5.88;;
12896;SDS011;6516;35.028;32.372;2023-07-28T10:54:31;22.38;;;6.28;;
12896;SDS011;6516;35.028;32.372;2023-07-28T10:57:01;23.03;;;5.93;;
12896;SDS011;6516;35.028;32.372;2023-07-28T10:59:29;20.92;;;5.45;;
12896;SDS011;6516;35.028;32.372;2023-07-28T11:01:57;22.98;;;7.10;;
12896;SDS011;6516;35.028;32.372;2023-07-28T11:04:26;38.22;;;7.03;;
12896;SDS011;6516;35.028;32.372;2023-07-28T11:06:54;25.17;;;6.35;;
12896;SDS011;6516;35.028;32.372;2023-07-28T11:09:22;26.33;;;5.90;;
12896;SDS011;6516;35.028;32.372;2023-07-28T11:11:50;20.92;;;5.60;;
12896;SDS011;6516;35.028;32.372;2023-07-28T11:14:19;22.10;;;6.40;;
12896;SDS011;6516;35.028;32.372;2023-07-28T11:16:47;21.80;;;6.47;;
12896;SDS011;6516;35.028;32.372;2023-07-28T11:19:15;23.88;;;5.90;;
12896;SDS011;6516;35.028;32.372;2023-07-28T11:21:51;27.83;;;6.13;;
12896;SDS011;6516;35.028;32.372;2023-07-28T11:24:20;25.70;;;6.88;;
12896;SDS011;6516;35.028;32.372;2023-07-28T11:26:49;28.02;;;6.15;;
12896;SDS011;6516;35.028;32.372;2023-07-28T11:29:18;21.92;;;5.70;;
12896;SDS011;6516;35.028;32.372;2023-07-28T11:31:47;21.92;;;5.97;;
12896;SDS011;6516;35.028;32.372;2023-07-28T11:34:15;19.63;;;6.43;;
12896;SDS011;6516;35.028;32.372;2023-07-28T11:36:43;30.63;;;6.18;;
12896;SDS011;6516;35.028;32.372;2023-07-28T11:39:13;24.40;;;6.00;;
12896;SDS011;6516;35.028;32.372;2023-07-28T11:41:44;23.40;;;5.80;;
12896;SDS011;6516;35.028;32.372;2023-07-28T11:44:13;20.10;;;5.65;;
12896;SDS011;6516;35.028;32.372;2023-07-28T11:46:43;21.07;;;5.97;;
12896;SDS011;6516;35.028;32.372;2023-07-28T11:49:13;21.90;;;5.95;;
12896;SDS011;6516;35.028;32.372;2023-07-28T11:51:44;24.75;;;5.90;;
12896;SDS011;6516;35.028;32.372;2023-07-28T11:54:17;27.50;;;6.07;;
12896;SDS011;6516;35.028;32.372;2023-07-28T11:56:48;27.05;;;6.22;;
12896;SDS011;6516;35.028;32.372;2023-07-28T11:59:18;18.43;;;5.73;;
12896;SDS011;6516;35.028;32.372;2023-07-28T12:01:51;18.70;;;5.38;;
12896;SDS011;6516;35.028;32.372;2023-07-28T12:04:23;18.70;;;5.30;;
12896;SDS011;6516;35.028;32.372;2023-07-28T12:07:06;20.67;;;6.00;;
12896;SDS011;6516;35.028;32.372;2023-07-28T12:09:51;17.83;;;6.43;;
12896;SDS011;6516;35.028;32.372;2023-07-28T12:12:21;19.67;;;5.97;;
12896;SDS011;6516;35.028;32.372;2023-07-28T12:14:51;22.83;;;6.00;;
12896;SDS011;6516;35.028;32.372;2023-07-28T12:17:20;24.55;;;6.25;;
12896;SDS011;6516;35.028;32.372;2023-07-28T12:19:57;19.15;;;5.75;;
12896;SDS011;6516;35.028;32.372;2023-07-28T12:22:27;33.05;;;8.23;;
12896;SDS011;6516;35.028;32.372;2023-07-28T12:24:57;17.13;;;5.63;;
12896;SDS011;6516;35.028;32.372;2023-07-28T12:27:25;27.25;;;5.93;;
12896;SDS011;6516;35.028;32.372;2023-07-28T12:29:53;18.95;;;6.18;;
12896;SDS011;6516;35.028;32.372;2023-07-28T12:32:22;23.50;;;6.90;;
12896;SDS011;6516;35.028;32.372;2023-07-28T12:34:51;20.73;;;6.22;;
12896;SDS011;6516;35.028;32.372;2023-07-28T12:37:18;22.33;;;6.00;;
12896;SDS011;6516;35.028;32.372;2023-07-28T12:39:47;38.10;;;6.75;;
12896;SDS011;6516;35.028;32.372;2023-07-28T12:42:17;20.00;;;5.70;;
12896;SDS011;6516;35.028;32.372;2023-07-28T12:44:45;18.70;;;6.85;;
12896;SDS011;6516;35.028;32.372;2023-07-28T12:47:13;19.58;;;6.05;;
12896;SDS011;6516;35.028;32.372;2023-07-28T12:49:42;23.60;;;6.50;;
12896;SDS011;6516;35.028;32.372;2023-07-28T12:52:09;18.58;;;5.40;;
12896;SDS011;6516;35.028;32.372;2023-07-28T12:54:37;17.15;;;5.72;;
12896;SDS011;6516;35.028;32.372;2023-07-28T12:57:07;18.23;;;5.40;;
12896;SDS011;6516;35.028;32.372;2023-07-28T12:59:39;16.88;;;5.28;;
12896;SDS011;6516;35.028;32.372;2023-07-28T13:02:09;16.00;;;5.10;;
12896;SDS011;6516;35.028;32.372;2023-07-28T13:04:40;16.25;;;5.68;;
12896;SDS011;6516;35.028;32.372;2023-07-28T13:07:09;16.08;;;5.45;;
12896;SDS011;6516;35.028;32.372;2023-07-28T13:09:36;14.88;;;5.47;;
12896;SDS011;6516;35.028;32.372;2023-07-28T13:12:04;20.95;;;5.40;;
12896;SDS011;6516;35.028;32.372;2023-07-28T13:14:34;18.67;;;5.90;;
12896;SDS011;6516;35.028;32.372;2023-07-28T13:17:04;17.02;;;5.55;;
12896;SDS011;6516;35.028;32.372;2023-07-28T13:19:32;20.23;;;5.63;;
12896;SDS011;6516;35.028;32.372;2023-07-28T13:22:00;14.20;;;5.82;;
12896;SDS011;6516;35.028;32.372;2023-07-28T13:24:28;18.13;;;5.57;;
12896;SDS011;6516;35.028;32.372;2023-07-28T13:26:56;17.27;;;5.70;;
12896;SDS011;6516;35.028;32.372;2023-07-28T13:29:23;17.98;;;5.40;;
12896;SDS011;6516;35.028;32.372;2023-07-28T13:31:56;16.17;;;5.53;;
12896;SDS011;6516;35.028;32.372;2023-07-28T13:34:27;17.40;;;5.00;;
12896;SDS011;6516;35.028;32.372;2023-07-28T13:36:57;18.90;;;5.53;;
12896;SDS011;6516;35.028;32.372;2023-07-28T13:39:25;15.70;;;5.20;;
12896;SDS011;6516;35.028;32.372;2023-07-28T13:41:54;16.98;;;5.00;;
12896;SDS011;6516;35.028;32.372;2023-07-28T13:44:22;13.73;;;5.25;;
12896;SDS011;6516;35.028;32.372;2023-07-28T13:46:50;11.90;;;5.10;;
12896;SDS011;6516;35.028;32.372;2023-07-28T13:49:17;15.77;;;4.47;;
12896;SDS011;6516;35.028;32.372;2023-07-28T13:51:48;16.80;;;5.37;;
12896;SDS011;6516;35.028;32.372;2023-07-28T13:54:16;15.85;;;5.15;;
12896;SDS011;6516;35.028;32.372;2023-07-28T13:56:44;16.20;;;5.50;;
12896;SDS011;6516;35.028;32.372;2023-07-28T13:59:12;14.52;;;5.03;;
12896;SDS011;6516;35.028;32.372;2023-07-28T14:01:40;14.25;;;5.20;;
12896;SDS011;6516;35.028;32.372;2023-07-28T14:04:08;15.77;;;5.13;;
12896;SDS011;6516;35.028;32.372;2023-07-28T14:06:36;15.18;;;5.30;;
12896;SDS011;6516;35.028;32.372;2023-07-28T14:09:06;17.50;;;5.40;;
12896;SDS011;6516;35.028;32.372;2023-07-28T14:11:35;13.10;;;5.20;;
12896;SDS011;6516;35.028;32.372;2023-07-28T14:14:03;13.55;;;4.85;;
12896;SDS011;6516;35.028;32.372;2023-07-28T14:16:31;12.57;;;5.03;;
12896;SDS011;6516;35.028;32.372;2023-07-28T14:18:59;12.40;;;5.47;;
12896;SDS011;6516;35.028;32.372;2023-07-28T14:21:27;16.00;;;5.13;;
12896;SDS011;6516;35.028;32.372;2023-07-28T14:23:55;14.38;;;5.13;;
12896;SDS011;6516;35.028;32.372;2023-07-28T14:26:26;16.98;;;5.63;;
12896;SDS011;6516;35.028;32.372;2023-07-28T14:28:54;15.50;;;5.67;;
12896;SDS011;6516;35.028;32.372;2023-07-28T14:31:22;12.10;;;5.10;;
12896;SDS011;6516;35.028;32.372;2023-07-28T14:33:50;17.08;;;5.55;;
12896;SDS011;6516;35.028;32.372;2023-07-28T14:36:17;18.23;;;5.68;;
12896;SDS011;6516;35.028;32.372;2023-07-28T14:38:46;19.58;;;5.60;;
12896;SDS011;6516;35.028;32.372;2023-07-28T14:41:14;15.27;;;5.23;;
12896;SDS011;6516;35.028;32.372;2023-07-28T14:43:44;14.48;;;5.20;;